메인 페이지
METAR-TAF:

METAR-TAF

공항 :

자이푸르, 인도

위도: 26-49N, 경도: 075-48E, 고도: 385m

현재 날씨관측

예보는 37분 전, 22:30시(UTC)에 발표되었습니다.
북서4kt
온도 33°C
습도 17%
기압 1008 hPa
시정: 2500m
고도 10000ft 상공 구름 보통
연무

METAR: VIJP 232230Z 32004KT 2500 HZ SCT100 33/05 Q1008 NOSIG

시각: 04:37 (23:07 UTC)

예보

예보는 3 시간 7분 전, 20:00시(UTC)에 발표되었습니다.
예보 대상 시간: 23일 21시부터 24일 06시까지 (UTC)
여러 방향의 바람 3kt
시정: 3000m
고도 3500ft 상공 구름 조금
연무
전환 중
24일 00시부터 24일 02시까지 (UTC)
여러 방향의 바람 2kt
시정: 2000m
고도 10000ft 상공 구름 조금
연무
전환 중
24일 04시부터 24일 05시까지 (UTC)
북서5kt
시정: 5000m
고도 3500ft 상공 구름 조금
고도 10000ft 상공 구름 보통
연무

TAF: VIJP 232000Z 2321/2406 VRB03KT 3000 HZ FEW035 BECMG 2400/2402 VRB02KT 2000 HZ FEW100 BECMG 2404/2405 32005KT 5000 HZ FEW035 SCT100

4,000개 이상의 공항 관측 자료 및 예보 (METAR 및 TAF 보고).

지도상에서 검색 가능한 기상관측소가 노란 점과 빨간 점으로 표시되어 있습니다.

기상관측소 명을 보려면 표시 위로 마우스를 이동하세요.

날씨 관측과 예보를 보려면 클릭하세요.

지도 변경 : 확대하려면 엑스 표시가 있는 녹색 버튼, 축소하려면 빼기 표시가 있는 녹색 버튼, 다음 페이지의 지도를 보려면 녹색 화살표를 클릭하세요.


METAR-TAF: